Time;durP1;ratioP1;P1;durP2;ratioP2;P2;SDS_P1;SDS_P2;PMS_P1;PMS_P2;Temp;Humidity;BMP_temperature;BMP_pressure;BME280_temperature;BME280_humidity;BME280_pressure;Samples;Min_cycle;Max_cycle;Signal;HPM_P1;HPM_P2
2022/03/09 00:00:05;;;;;;;22.50;8.98;;;7.10;63.80;;;;;;5053523;28;20040;-68
2022/03/09 00:03:09;;;;;;;12.65;7.28;;;7.10;63.90;;;;;;5052512;28;20420;-68
2022/03/09 00:06:13;;;;;;;18.67;7.70;;;7.10;63.70;;;;;;5053151;28;20504;-69
2022/03/09 00:09:17;;;;;;;13.43;6.63;;;7.10;63.70;;;;;;5052422;28;20044;-68
2022/03/09 00:12:21;;;;;;;13.07;6.78;;;7.20;64.00;;;;;;5053277;28;20503;-68
2022/03/09 00:15:26;;;;;;;13.40;6.93;;;7.20;63.60;;;;;;5053158;28;20060;-69
2022/03/09 00:18:30;;;;;;;16.75;7.68;;;7.20;63.60;;;;;;5053104;28;20044;-69
2022/03/09 00:21:33;;;;;;;19.58;7.22;;;7.20;63.80;;;;;;5052318;28;20511;-69
2022/03/09 00:24:38;;;;;;;12.35;6.18;;;7.20;62.60;;;;;;5052648;28;20052;-69
2022/03/09 00:27:43;;;;;;;21.55;6.95;;;7.20;61.30;;;;;;5052571;28;20048;-68
2022/03/09 00:30:48;;;;;;;11.63;6.35;;;7.20;61.50;;;;;;5052845;28;20682;-69
2022/03/09 00:33:52;;;;;;;10.75;5.65;;;7.10;61.90;;;;;;5052871;28;20044;-68
2022/03/09 00:36:56;;;;;;;11.10;5.07;;;7.10;61.10;;;;;;5053022;28;20040;-67
2022/03/09 00:40:00;;;;;;;7.20;3.92;;;7.20;60.60;;;;;;5052561;28;20067;-68
2022/03/09 00:43:04;;;;;;;13.35;4.75;;;7.20;59.30;;;;;;5052269;28;20045;-69
2022/03/09 00:46:08;;;;;;;6.75;3.30;;;7.30;60.00;;;;;;5051861;28;20040;-68
2022/03/09 00:49:13;;;;;;;12.98;3.88;;;7.40;57.70;;;;;;5052208;28;20041;-68
2022/03/09 00:52:16;;;;;;;5.55;3.38;;;7.50;57.90;;;;;;5051803;28;20040;-69
2022/03/09 00:55:20;;;;;;;6.45;3.60;;;7.50;58.10;;;;;;5052774;28;20044;-67
2022/03/09 00:58:24;;;;;;;10.57;3.72;;;7.40;58.40;;;;;;5052368;28;20041;-69
2022/03/09 01:01:28;;;;;;;7.53;3.88;;;7.50;58.40;;;;;;5052341;28;20044;-69
2022/03/09 01:04:34;;;;;;;8.77;3.47;;;7.50;58.60;;;;;;5052450;28;20623;-68
2022/03/09 01:07:37;;;;;;;7.72;3.65;;;7.40;58.90;;;;;;5051427;28;20504;-69
2022/03/09 01:10:41;;;;;;;5.63;3.63;;;7.40;58.60;;;;;;5051199;28;20045;-68
2022/03/09 01:13:45;;;;;;;7.60;3.35;;;7.40;58.40;;;;;;5051140;28;20037;-67
2022/03/09 01:16:49;;;;;;;11.75;3.75;;;7.50;58.60;;;;;;5051788;28;20649;-69
2022/03/09 01:19:54;;;;;;;6.13;3.42;;;7.40;59.40;;;;;;5051957;28;20056;-69
2022/03/09 01:22:58;;;;;;;6.65;3.72;;;7.40;59.30;;;;;;5050825;28;20041;-69
2022/03/09 01:26:02;;;;;;;5.40;3.47;;;7.30;59.60;;;;;;5051792;28;20037;-68
2022/03/09 01:29:07;;;;;;;7.13;3.60;;;7.30;60.10;;;;;;5028092;28;20489;-68
2022/03/09 01:32:11;;;;;;;6.78;3.88;;;7.30;59.30;;;;;;5051710;28;20033;-68
2022/03/09 01:35:15;;;;;;;8.75;3.78;;;7.40;59.20;;;;;;5051628;28;20037;-68
2022/03/09 01:38:19;;;;;;;10.80;3.88;;;7.40;59.20;;;;;;5051800;28;20041;-68
2022/03/09 01:41:23;;;;;;;9.32;3.65;;;7.50;59.70;;;;;;5051244;28;20511;-68
2022/03/09 01:44:27;;;;;;;6.20;3.30;;;7.50;59.80;;;;;;5051561;28;20048;-68
2022/03/09 01:47:31;;;;;;;7.70;3.20;;;7.50;59.10;;;;;;5051477;28;20033;-68
2022/03/09 01:50:35;;;;;;;7.38;3.55;;;7.50;58.50;;;;;;5050736;28;20049;-68
2022/03/09 01:53:40;;;;;;;8.15;3.75;;;7.40;59.00;;;;;;5051445;28;20378;-68
2022/03/09 01:56:46;;;;;;;10.40;3.42;;;7.40;59.50;;;;;;5051385;28;20617;-70
2022/03/09 01:59:51;;;;;;;9.23;3.53;;;7.40;59.80;;;;;;5038576;28;20397;-68
2022/03/09 02:02:55;;;;;;;6.68;3.80;;;7.30;59.30;;;;;;5050316;28;20489;-69
2022/03/09 02:05:59;;;;;;;7.00;3.83;;;7.30;59.50;;;;;;5051096;28;20036;-69
2022/03/09 02:09:43;;;;;;;7.97;3.78;;;7.30;60.20;;;;;;5050974;28;20385;-69
2022/03/09 02:12:47;;;;;;;5.28;3.50;;;7.30;58.80;;;;;;5051156;28;20028;-69
2022/03/09 02:15:51;;;;;;;6.40;3.65;;;7.30;58.30;;;;;;5050900;28;20045;-69
2022/03/09 02:18:56;;;;;;;5.43;3.60;;;7.40;59.30;;;;;;5050995;28;20382;-69
2022/03/09 02:22:05;;;;;;;5.80;3.60;;;7.50;59.00;;;;;;5051145;28;20044;-70
2022/03/09 02:25:14;;;;;;;6.25;3.63;;;7.60;58.10;;;;;;5050283;28;20040;-70
2022/03/09 02:28:19;;;;;;;8.02;3.45;;;7.60;57.40;;;;;;5038582;28;20041;-68
2022/03/09 02:31:23;;;;;;;7.75;3.50;;;7.60;58.10;;;;;;5050809;28;20037;-67
2022/03/09 02:34:28;;;;;;;10.35;4.05;;;7.70;58.00;;;;;;5051198;28;20041;-69
2022/03/09 02:37:32;;;;;;;4.32;3.33;;;7.70;58.70;;;;;;5050914;28;20511;-67
2022/03/09 02:40:36;;;;;;;13.05;4.25;;;7.70;58.60;;;;;;5051046;28;20469;-69
2022/03/09 02:43:40;;;;;;;10.73;4.03;;;7.60;58.80;;;;;;5050652;28;20404;-69
2022/03/09 02:46:45;;;;;;;6.30;3.53;;;7.60;58.30;;;;;;5050417;28;20044;-68
2022/03/09 02:49:49;;;;;;;6.80;3.63;;;7.70;58.90;;;;;;5050787;28;20044;-68
2022/03/09 02:52:53;;;;;;;10.40;4.32;;;7.60;59.90;;;;;;5050665;28;20029;-69
2022/03/09 02:55:56;;;;;;;6.05;3.63;;;7.60;58.80;;;;;;5050648;28;20618;-68
2022/03/09 02:59:00;;;;;;;14.57;4.25;;;7.70;59.90;;;;;;5050514;28;20041;-68
2022/03/09 03:02:05;;;;;;;7.93;3.90;;;7.60;59.00;;;;;;5050770;28;20048;-68
2022/03/09 03:05:10;;;;;;;8.00;4.03;;;7.70;59.10;;;;;;5050610;28;20045;-69
2022/03/09 03:08:14;;;;;;;8.43;4.47;;;7.70;58.90;;;;;;5050522;28;20572;-69
2022/03/09 03:11:18;;;;;;;7.18;4.20;;;7.70;58.50;;;;;;5054034;28;20044;-68
2022/03/09 03:14:23;;;;;;;6.63;3.97;;;7.60;59.00;;;;;;5054253;28;20037;-69
2022/03/09 03:17:27;;;;;;;6.32;3.75;;;7.60;59.30;;;;;;5053620;28;20037;-69
2022/03/09 03:20:31;;;;;;;9.80;4.20;;;7.20;59.20;;;;;;5053380;28;20045;-68
2022/03/09 03:23:35;;;;;;;9.68;4.10;;;7.70;59.60;;;;;;5053997;28;20377;-68
2022/03/09 03:26:39;;;;;;;7.43;3.80;;;7.60;58.80;;;;;;5054373;28;20029;-69
2022/03/09 03:29:43;;;;;;;6.80;4.32;;;7.70;59.60;;;;;;5053926;28;20512;-68
2022/03/09 03:32:47;;;;;;;8.82;4.28;;;7.70;58.60;;;;;;5053826;28;20029;-68
2022/03/09 03:35:52;;;;;;;6.95;3.50;;;7.70;58.40;;;;;;5053855;28;20037;-69
2022/03/09 03:38:56;;;;;;;10.05;4.00;;;7.70;58.10;;;;;;5053642;28;20041;-69
2022/03/09 03:42:00;;;;;;;8.80;4.47;;;7.60;58.40;;;;;;5052839;28;20037;-68
2022/03/09 03:45:05;;;;;;;6.18;3.67;;;7.70;59.50;;;;;;5053939;28;20045;-69
2022/03/09 03:48:09;;;;;;;6.07;3.88;;;7.60;59.60;;;;;;5053695;28;20124;-69
2022/03/09 03:51:12;;;;;;;8.68;3.90;;;7.60;59.30;;;;;;5053579;28;20045;-68
2022/03/09 03:54:16;;;;;;;8.07;4.15;;;7.60;59.40;;;;;;5053722;28;20044;-70
2022/03/09 03:57:21;;;;;;;7.75;4.03;;;7.70;59.50;;;;;;5053703;28;20037;-67
2022/03/09 04:00:25;;;;;;;7.07;4.07;;;7.60;60.20;;;;;;5053299;28;20473;-68
2022/03/09 04:03:28;;;;;;;8.13;3.88;;;7.60;60.20;;;;;;5053191;28;20045;-68
2022/03/09 04:06:32;;;;;;;8.85;4.57;;;7.60;60.40;;;;;;5053772;28;20498;-69
2022/03/09 04:09:36;;;;;;;9.85;4.07;;;7.60;60.40;;;;;;5053115;28;20037;-67
2022/03/09 04:12:40;;;;;;;8.18;4.13;;;7.60;58.80;;;;;;5053232;28;20037;-68
2022/03/09 04:15:45;;;;;;;6.07;3.90;;;7.60;58.40;;;;;;5052936;28;20057;-68
2022/03/09 04:18:49;;;;;;;7.82;4.78;;;7.70;58.60;;;;;;5052381;28;20029;-68
2022/03/09 04:21:53;;;;;;;7.20;4.32;;;7.70;58.00;;;;;;5052316;28;20512;-69
2022/03/09 04:24:56;;;;;;;6.43;3.88;;;7.70;59.00;;;;;;5053041;28;20045;-69
2022/03/09 04:28:03;;;;;;;10.45;4.22;;;7.70;58.50;;;;;;5053216;28;20037;-68
2022/03/09 04:31:07;;;;;;;13.63;4.50;;;7.70;58.90;;;;;;5053045;28;20393;-70
2022/03/09 04:34:11;;;;;;;10.00;4.38;;;7.70;59.60;;;;;;5053185;28;20052;-70
2022/03/09 04:37:15;;;;;;;14.02;4.57;;;7.70;59.40;;;;;;5052213;28;20060;-69
2022/03/09 04:40:19;;;;;;;12.95;4.70;;;7.70;59.80;;;;;;5052447;28;20048;-68
2022/03/09 04:43:23;;;;;;;11.38;4.57;;;7.70;59.30;;;;;;5052579;28;20051;-69
2022/03/09 04:46:27;;;;;;;8.32;3.97;;;7.60;58.90;;;;;;5052900;28;20048;-70
2022/03/09 04:49:31;;;;;;;8.73;4.75;;;7.70;59.10;;;;;;5051943;28;20049;-69
2022/03/09 04:52:35;;;;;;;7.22;4.20;;;7.60;59.60;;;;;;5052795;28;20037;-69
2022/03/09 04:55:39;;;;;;;9.55;4.95;;;7.60;59.30;;;;;;5052510;28;20041;-70
2022/03/09 04:58:43;;;;;;;8.82;5.05;;;7.50;59.30;;;;;;5052146;28;20032;-68
2022/03/09 05:01:46;;;;;;;15.30;5.75;;;7.60;59.70;;;;;;5052538;28;20045;-69
2022/03/09 05:04:51;;;;;;;11.90;4.75;;;7.60;58.70;;;;;;5052402;28;20051;-69
2022/03/09 05:07:55;;;;;;;6.82;4.60;;;7.50;59.20;;;;;;5052128;28;20044;-69
2022/03/09 05:10:59;;;;;;;8.55;5.45;;;7.60;58.10;;;;;;5052309;28;20045;-67
2022/03/09 05:14:03;;;;;;;8.80;5.03;;;7.60;58.10;;;;;;5051432;28;20037;-68
2022/03/09 05:17:06;;;;;;;12.52;4.80;;;7.60;58.80;;;;;;5052252;28;20048;-68
2022/03/09 05:20:12;;;;;;;7.22;4.72;;;7.50;59.10;;;;;;5052137;28;20056;-68
2022/03/09 05:23:16;;;;;;;9.20;4.47;;;7.60;58.30;;;;;;5052092;28;20044;-69
2022/03/09 05:26:19;;;;;;;12.02;4.05;;;7.60;57.60;;;;;;5051918;28;20032;-67
2022/03/09 05:29:23;;;;;;;9.57;4.18;;;7.60;55.50;;;;;;5051828;28;20048;-69
2022/03/09 05:32:27;;;;;;;7.13;4.10;;;7.70;57.00;;;;;;5051559;28;20037;-69
2022/03/09 05:35:32;;;;;;;6.65;3.85;;;7.70;58.00;;;;;;5051650;28;20044;-68
2022/03/09 05:38:36;;;;;;;10.88;4.82;;;7.70;59.10;;;;;;5051417;28;20037;-69
2022/03/09 05:41:40;;;;;;;9.60;4.60;;;7.60;59.10;;;;;;5051514;28;20048;-69
2022/03/09 05:44:44;;;;;;;8.85;5.20;;;7.60;60.00;;;;;;5051721;28;20052;-68
2022/03/09 05:47:48;;;;;;;11.32;4.93;;;7.60;59.80;;;;;;5051386;28;20033;-69
2022/03/09 05:50:52;;;;;;;7.82;4.45;;;7.50;60.30;;;;;;5051524;28;20108;-69
2022/03/09 05:53:57;;;;;;;12.55;4.93;;;7.60;60.60;;;;;;5050610;28;20033;-68
2022/03/09 05:57:01;;;;;;;7.75;4.68;;;7.50;60.80;;;;;;5051069;28;20067;-70
2022/03/09 06:00:08;;;;;;;11.70;5.22;;;7.50;60.60;;;;;;5039164;28;20037;-71
2022/03/09 06:03:15;;;;;;;13.10;4.78;;;7.50;60.20;;;;;;5051515;28;20048;-68
2022/03/09 06:06:19;;;;;;;8.18;4.22;;;7.60;60.80;;;;;;5051431;28;20389;-68
2022/03/09 06:09:24;;;;;;;8.75;5.13;;;7.70;60.50;;;;;;5050950;28;20037;-68
2022/03/09 06:12:28;;;;;;;11.18;5.57;;;7.80;60.50;;;;;;5051398;28;20037;-68
2022/03/09 06:15:32;;;;;;;14.98;6.13;;;8.40;60.10;;;;;;5050346;28;20055;-68
2022/03/09 06:18:37;;;;;;;14.27;5.95;;;10.00;57.80;;;;;;5051063;28;20040;-69
2022/03/09 06:21:41;;;;;;;10.43;6.15;;;11.70;55.10;;;;;;5039054;28;20396;-68
2022/03/09 06:24:46;;;;;;;20.02;8.80;;;13.30;51.20;;;;;;5051095;28;20056;-66
2022/03/09 06:27:52;;;;;;;11.02;5.60;;;14.10;49.80;;;;;;5050741;28;20044;-65
2022/03/09 06:30:56;;;;;;;13.18;6.18;;;14.40;48.20;;;;;;5050747;28;20543;-67
2022/03/09 06:34:00;;;;;;;13.50;7.00;;;14.90;48.40;;;;;;5051060;28;20043;-68
2022/03/09 06:37:04;;;;;;;16.23;6.50;;;15.20;47.80;;;;;;5050854;28;20119;-68
2022/03/09 06:40:09;;;;;;;12.85;5.55;;;15.30;47.70;;;;;;5051001;28;20047;-68
2022/03/09 06:43:13;;;;;;;11.88;5.80;;;15.40;47.30;;;;;;5050979;28;20060;-67
2022/03/09 06:46:17;;;;;;;10.27;6.05;;;15.20;47.20;;;;;;5053862;28;20427;-67
2022/03/09 06:49:22;;;;;;;13.13;6.30;;;14.90;48.60;;;;;;5054666;28;20056;-67
2022/03/09 06:52:25;;;;;;;13.50;6.32;;;14.80;48.20;;;;;;5054650;28;20499;-67
2022/03/09 06:55:29;;;;;;;15.50;5.72;;;14.50;48.90;;;;;;5054690;28;20044;-67
2022/03/09 06:58:33;;;;;;;12.65;5.75;;;14.30;49.00;;;;;;5054638;28;20048;-67
2022/03/09 07:01:37;;;;;;;11.07;6.53;;;14.30;49.90;;;;;;5054786;28;20048;-67
2022/03/09 07:04:42;;;;;;;14.02;6.32;;;13.90;50.00;;;;;;5054402;28;20048;-67
2022/03/09 07:07:45;;;;;;;16.42;6.65;;;13.60;50.00;;;;;;5054352;28;20036;-66
2022/03/09 07:10:50;;;;;;;12.52;5.70;;;13.20;50.40;;;;;;5054154;28;20052;-67
2022/03/09 07:13:54;;;;;;;10.73;5.60;;;12.70;51.40;;;;;;5053646;28;20420;-67
2022/03/09 07:16:58;;;;;;;14.70;6.40;;;12.20;52.10;;;;;;5042151;28;20056;-66
2022/03/09 07:20:03;;;;;;;12.55;6.60;;;12.00;53.20;;;;;;5054400;28;20039;-67
2022/03/09 07:23:07;;;;;;;12.45;6.45;;;11.60;53.30;;;;;;5054290;28;20040;-69
2022/03/09 07:26:11;;;;;;;16.45;7.63;;;11.50;53.30;;;;;;5054177;28;20052;-66
2022/03/09 07:29:17;;;;;;;14.95;7.10;;;11.50;55.20;;;;;;5053827;28;20495;-66
2022/03/09 07:32:21;;;;;;;12.05;6.05;;;11.60;54.90;;;;;;5054007;28;20048;-70
2022/03/09 07:35:26;;;;;;;14.55;6.95;;;11.70;56.30;;;;;;5053689;28;20048;-68
2022/03/09 07:38:30;;;;;;;11.05;6.15;;;11.80;54.00;;;;;;5053543;28;20044;-66
2022/03/09 07:41:34;;;;;;;13.48;5.97;;;11.60;53.80;;;;;;5054113;28;20528;-66
2022/03/09 07:44:39;;;;;;;11.55;5.72;;;11.50;55.30;;;;;;5053713;28;20051;-66
2022/03/09 07:47:43;;;;;;;12.88;4.93;;;11.70;55.90;;;;;;5053809;28;20036;-67
2022/03/09 07:50:47;;;;;;;5.72;4.32;;;11.70;54.30;;;;;;5053523;28;20044;-67
2022/03/09 07:53:50;;;;;;;9.45;4.90;;;11.60;54.10;;;;;;5053505;28;20044;-68
2022/03/09 07:56:56;;;;;;;16.13;5.28;;;11.00;52.70;;;;;;5051353;28;20052;-66
2022/03/09 08:00:01;;;;;;;20.30;5.00;;;10.60;55.40;;;;;;5053451;28;20048;-65
2022/03/09 08:03:15;;;;;;;9.10;4.63;;;10.50;56.40;;;;;;5042500;28;20404;-67
2022/03/09 08:06:20;;;;;;;10.70;4.80;;;10.40;55.10;;;;;;5052704;28;20044;-64
2022/03/09 08:09:24;;;;;;;12.77;4.93;;;10.40;55.50;;;;;;5051188;28;20068;-63
2022/03/09 08:12:28;;;;;;;7.45;5.22;;;10.50;55.00;;;;;;5053175;28;20499;-64
2022/03/09 08:15:34;;;;;;;6.70;4.75;;;10.60;54.20;;;;;;5053072;28;20060;-65
2022/03/09 08:18:38;;;;;;;7.20;4.35;;;10.50;52.90;;;;;;5053339;28;20393;-65
2022/03/09 08:21:42;;;;;;;7.60;4.55;;;10.70;53.70;;;;;;5053053;28;20658;-67
2022/03/09 08:24:46;;;;;;;13.38;5.07;;;10.90;50.40;;;;;;5053140;28;20514;-68
2022/03/09 08:27:50;;;;;;;6.43;4.05;;;10.80;50.30;;;;;;5053214;28;20499;-67
2022/03/09 08:30:54;;;;;;;11.27;5.07;;;11.10;51.00;;;;;;5053335;28;20052;-65
2022/03/09 08:33:58;;;;;;;10.18;5.07;;;11.20;51.10;;;;;;5053231;28;20048;-67
2022/03/09 08:37:02;;;;;;;7.97;4.55;;;11.20;50.20;;;;;;5052882;28;20495;-67
2022/03/09 08:40:09;;;;;;;6.18;4.40;;;11.40;51.30;;;;;;5052944;28;20397;-67
2022/03/09 08:43:13;;;;;;;10.23;4.15;;;11.40;49.80;;;;;;5052829;28;20388;-66
2022/03/09 08:46:17;;;;;;;10.93;3.80;;;11.30;49.70;;;;;;5052178;28;20404;-68
2022/03/09 08:49:21;;;;;;;7.80;3.70;;;11.20;49.40;;;;;;5052806;28;20052;-66
2022/03/09 08:52:25;;;;;;;7.72;4.13;;;11.10;50.00;;;;;;5052957;28;20063;-67
2022/03/09 08:55:29;;;;;;;10.90;3.80;;;11.00;51.10;;;;;;5052723;28;20396;-66
2022/03/09 08:58:35;;;;;;;10.05;3.83;;;11.20;51.10;;;;;;5052473;28;20060;-66
2022/03/09 09:01:39;;;;;;;8.70;4.13;;;11.20;51.80;;;;;;5051805;28;20044;-67
2022/03/09 09:04:42;;;;;;;11.45;4.00;;;11.30;50.60;;;;;;5052525;28;20057;-67
2022/03/09 09:07:47;;;;;;;7.57;3.83;;;11.40;50.00;;;;;;5052361;28;20040;-68
2022/03/09 09:10:51;;;;;;;6.97;3.58;;;11.40;50.00;;;;;;5051404;28;20056;-67
2022/03/09 09:13:55;;;;;;;6.35;3.80;;;11.40;49.80;;;;;;5052140;28;20040;-68
2022/03/09 09:16:59;;;;;;;8.15;3.88;;;11.50;49.80;;;;;;5052124;28;20059;-68
2022/03/09 09:20:04;;;;;;;8.82;4.38;;;11.80;50.20;;;;;;5051762;28;20036;-68
2022/03/09 09:23:08;;;;;;;12.20;4.70;;;11.80;49.50;;;;;;5051738;28;20060;-70
2022/03/09 09:26:18;;;;;;;8.63;4.18;;;12.00;50.00;;;;;;5051731;28;20492;-68
2022/03/09 09:29:22;;;;;;;8.05;4.13;;;12.50;49.60;;;;;;5051731;28;20187;-68
2022/03/09 09:32:26;;;;;;;9.93;4.10;;;12.70;48.40;;;;;;5050936;28;20044;-68
2022/03/09 09:35:30;;;;;;;7.75;3.80;;;12.30;47.80;;;;;;5051910;28;20048;-67
2022/03/09 09:38:34;;;;;;;6.15;3.63;;;12.00;48.20;;;;;;5051806;28;20052;-69
2022/03/09 09:41:38;;;;;;;7.22;4.22;;;11.60;49.20;;;;;;5049834;28;20051;-69
2022/03/09 09:44:43;;;;;;;6.90;4.07;;;11.30;51.20;;;;;;5051395;28;20055;-71
2022/03/09 09:47:48;;;;;;;7.93;3.80;;;11.30;52.20;;;;;;5051138;28;20048;-69
2022/03/09 09:50:54;;;;;;;12.77;4.60;;;11.50;52.80;;;;;;5050544;28;20044;-67
2022/03/09 09:53:59;;;;;;;10.80;4.10;;;11.60;54.40;;;;;;5051474;28;20063;-70
2022/03/09 09:57:04;;;;;;;9.38;4.25;;;11.80;52.50;;;;;;5051193;28;20051;-68
2022/03/09 10:00:09;;;;;;;9.73;4.40;;;11.70;54.70;;;;;;5051129;28;20495;-66
2022/03/09 10:03:19;;;;;;;14.07;4.03;;;11.60;53.30;;;;;;5051013;28;20409;-70
2022/03/09 10:06:23;;;;;;;13.63;4.97;;;11.30;53.80;;;;;;5050910;28;20052;-69
2022/03/09 10:09:38;;;;;;;8.57;4.93;;;11.10;53.90;;;;;;5051179;28;20040;-69
2022/03/09 10:12:42;;;;;;;10.80;4.43;;;10.90;54.00;;;;;;5050902;28;20405;-66
2022/03/09 10:15:48;;;;;;;11.40;4.20;;;10.90;54.70;;;;;;5051330;28;20056;-66
2022/03/09 10:18:54;;;;;;;9.23;4.50;;;11.10;55.40;;;;;;5038484;28;20048;-69
2022/03/09 10:21:58;;;;;;;12.82;4.95;;;11.40;54.40;;;;;;5052256;28;20044;-69
2022/03/09 10:25:09;;;;;;;9.80;4.05;;;11.30;53.80;;;;;;5051109;28;20048;-69
2022/03/09 10:28:14;;;;;;;11.20;4.57;;;11.30;53.70;;;;;;5050334;28;20040;-70
2022/03/09 10:31:33;;;;;;;10.65;4.38;;;11.30;53.00;;;;;;5051633;28;20274;-70
2022/03/09 10:34:47;;;;;;;10.93;5.63;;;11.40;53.90;;;;;;5050987;28;20040;-69
2022/03/09 10:37:51;;;;;;;8.88;4.70;;;11.90;53.30;;;;;;5050951;28;20044;-69
2022/03/09 10:41:00;;;;;;;9.48;4.97;;;11.80;52.60;;;;;;5050428;28;20063;-69
2022/03/09 10:44:04;;;;;;;9.05;4.43;;;11.90;53.10;;;;;;5050641;28;20405;-69
2022/03/09 10:47:09;;;;;;;14.15;4.80;;;12.30;51.30;;;;;;5051763;28;20056;-68
2022/03/09 10:50:17;;;;;;;13.95;4.75;;;12.10;52.20;;;;;;5051589;28;20500;-69
2022/03/09 10:53:22;;;;;;;11.50;4.72;;;11.80;50.80;;;;;;5051885;28;20040;-71
2022/03/09 10:56:25;;;;;;;10.85;4.10;;;11.90;50.70;;;;;;5051493;28;20063;-72
2022/03/09 10:59:41;;;;;;;8.98;3.72;;;12.10;50.80;;;;;;5050486;28;20040;-70
2022/03/09 11:02:50;;;;;;;11.38;4.75;;;12.40;51.20;;;;;;5051018;28;20048;-70
2022/03/09 11:06:03;;;;;;;8.32;4.70;;;12.70;50.80;;;;;;5051120;28;20048;-70
2022/03/09 11:09:08;;;;;;;7.38;4.00;;;13.00;50.90;;;;;;5050684;28;20044;-69
2022/03/09 11:12:12;;;;;;;9.77;4.32;;;13.00;49.10;;;;;;5050869;28;20452;-69
2022/03/09 11:15:19;;;;;;;7.22;4.10;;;12.90;49.70;;;;;;5049741;28;20504;-70
2022/03/09 11:18:25;;;;;;;7.45;4.45;;;12.90;50.40;;;;;;5050687;28;20056;-69
2022/03/09 11:21:30;;;;;;;7.22;3.80;;;13.00;49.30;;;;;;5050638;28;20052;-67
2022/03/09 11:24:39;;;;;;;8.18;4.15;;;13.20;50.70;;;;;;5050557;28;20056;-68
2022/03/09 11:27:46;;;;;;;13.45;3.67;;;13.30;50.20;;;;;;5050424;28;20408;-69
2022/03/09 11:30:59;;;;;;;8.43;3.55;;;13.20;50.00;;;;;;5051453;28;20060;-70
2022/03/09 11:34:03;;;;;;;6.35;3.78;;;13.00;51.00;;;;;;5052417;28;20048;-68
2022/03/09 11:37:13;;;;;;;9.38;3.97;;;13.10;50.00;;;;;;5052413;28;20056;-68
2022/03/09 11:40:16;;;;;;;11.57;4.07;;;12.90;49.20;;;;;;5052844;28;20183;-69
2022/03/09 11:43:28;;;;;;;10.10;4.20;;;12.90;49.80;;;;;;5051829;28;20048;-68
2022/03/09 11:46:59;;;;;;;10.40;4.22;;;12.80;49.80;;;;;;5053063;28;20432;-67
2022/03/09 11:50:06;;;;;;;9.27;3.97;;;12.80;50.20;;;;;;5052659;28;20048;-69
2022/03/09 11:53:10;;;;;;;8.13;3.90;;;12.90;51.80;;;;;;5041375;28;20040;-68
2022/03/09 11:56:27;;;;;;;11.48;5.63;;;13.00;48.90;;;;;;5054013;28;20044;-70
2022/03/09 11:59:32;;;;;;;14.82;6.72;;;13.00;50.50;;;;;;5053805;28;20043;-71
2022/03/09 12:02:43;;;;;;;7.13;3.72;;;13.10;50.80;;;;;;5054134;28;20040;-69
2022/03/09 12:05:47;;;;;;;7.53;4.40;;;13.00;49.30;;;;;;5053630;28;20052;-70
2022/03/09 12:08:51;;;;;;;14.18;5.18;;;13.10;49.70;;;;;;5053327;28;20048;-68
2022/03/09 12:12:10;;;;;;;8.52;3.88;;;13.20;51.30;;;;;;5052407;28;20039;-68
2022/03/09 12:15:16;;;;;;;10.90;4.50;;;13.50;51.60;;;;;;5053157;28;20044;-68
2022/03/09 12:18:40;;;;;;;11.05;4.18;;;13.30;50.30;;;;;;5053050;28;20507;-67
2022/03/09 12:21:47;;;;;;;9.95;4.13;;;13.10;50.70;;;;;;5051335;28;20044;-71
2022/03/09 12:24:51;;;;;;;8.48;4.50;;;13.20;49.70;;;;;;5053010;28;20055;-69
2022/03/09 12:28:15;;;;;;;25.40;12.95;;;13.00;50.70;;;;;;5052298;28;20052;-68
2022/03/09 12:31:20;;;;;;;10.98;6.95;;;13.10;51.70;;;;;;5053102;28;20265;-69
2022/03/09 12:34:26;;;;;;;8.38;3.92;;;13.30;51.40;;;;;;5053167;28;20044;-68
2022/03/09 12:37:31;;;;;;;8.68;3.83;;;13.50;50.60;;;;;;5053225;28;20048;-68
2022/03/09 12:40:35;;;;;;;9.75;4.07;;;13.60;51.50;;;;;;5051845;28;20048;-67
2022/03/09 12:43:51;;;;;;;6.97;4.15;;;13.70;50.30;;;;;;5040140;28;20052;-68
2022/03/09 12:47:00;;;;;;;9.88;3.97;;;13.70;49.10;;;;;;5040348;28;20060;-68
2022/03/09 12:50:05;;;;;;;10.93;4.22;;;13.60;48.70;;;;;;5052579;28;20044;-69
2022/03/09 12:53:09;;;;;;;10.02;4.82;;;13.40;50.40;;;;;;5052641;28;20504;-68
2022/03/09 12:56:18;;;;;;;8.88;4.63;;;13.40;50.60;;;;;;5052740;28;20040;-67
2022/03/09 12:59:22;;;;;;;6.97;4.75;;;13.50;51.10;;;;;;5052311;28;20044;-68
2022/03/09 13:02:45;;;;;;;7.80;3.72;;;13.70;50.50;;;;;;5052243;28;20043;-68
2022/03/09 13:05:49;;;;;;;8.38;3.72;;;13.80;52.00;;;;;;5052393;28;20040;-67
2022/03/09 13:08:54;;;;;;;10.82;3.92;;;13.70;49.70;;;;;;5052500;28;20056;-67
2022/03/09 13:12:06;;;;;;;14.07;4.03;;;13.50;49.50;;;;;;5052385;28;20060;-68
2022/03/09 13:15:10;;;;;;;8.02;3.63;;;13.50;49.10;;;;;;5051403;28;20060;-66
2022/03/09 13:18:24;;;;;;;5.57;3.47;;;13.50;49.30;;;;;;5051936;28;20064;-69
2022/03/09 13:21:32;;;;;;;5.75;3.83;;;13.60;50.50;;;;;;5051658;28;20409;-69
2022/03/09 13:24:36;;;;;;;11.32;4.43;;;13.60;48.50;;;;;;5050787;28;20400;-67
2022/03/09 13:27:41;;;;;;;8.18;4.00;;;13.40;49.40;;;;;;5050793;28;20791;-69
2022/03/09 13:30:55;;;;;;;6.93;3.65;;;13.40;49.00;;;;;;5051546;28;20040;-68
2022/03/09 13:34:11;;;;;;;8.57;4.43;;;13.40;50.50;;;;;;5051846;28;20044;-69
2022/03/09 13:37:20;;;;;;;7.55;3.60;;;13.50;50.40;;;;;;5051928;28;20051;-69
2022/03/09 13:40:24;;;;;;;7.07;3.08;;;13.60;50.00;;;;;;5051830;28;20048;-70
2022/03/09 13:43:30;;;;;;;5.00;3.10;;;13.60;50.10;;;;;;5039678;28;20051;-69
2022/03/09 13:46:36;;;;;;;9.20;3.60;;;13.70;51.00;;;;;;5051185;28;20060;-72
2022/03/09 13:49:43;;;;;;;11.63;4.47;;;13.70;50.40;;;;;;5050496;28;20048;-69
2022/03/09 13:52:49;;;;;;;7.47;4.10;;;13.70;50.60;;;;;;5051371;28;20048;-67
2022/03/09 13:55:53;;;;;;;11.38;4.15;;;13.70;49.90;;;;;;5051211;28;20228;-69
2022/03/09 13:58:57;;;;;;;5.68;3.92;;;13.60;50.20;;;;;;5051199;28;20043;-70
2022/03/09 14:02:01;;;;;;;9.80;3.83;;;13.60;51.20;;;;;;5050884;28;20046;-68
2022/03/09 14:05:06;;;;;;;9.45;4.00;;;13.60;49.50;;;;;;5051382;28;20511;-69
2022/03/09 14:08:25;;;;;;;13.40;4.53;;;13.50;48.80;;;;;;5051377;28;20044;-68
2022/03/09 14:11:33;;;;;;;5.47;3.30;;;13.50;50.30;;;;;;5051319;28;20047;-69
2022/03/09 14:14:41;;;;;;;7.05;3.20;;;13.50;49.70;;;;;;5051285;28;20523;-68
2022/03/09 14:17:45;;;;;;;6.82;4.38;;;13.20;49.40;;;;;;5050591;28;20392;-68
2022/03/09 14:20:50;;;;;;;6.38;3.75;;;13.20;50.40;;;;;;5050987;28;20044;-70
2022/03/09 14:23:57;;;;;;;10.43;5.28;;;13.20;51.40;;;;;;5050814;28;20066;-71
2022/03/09 14:27:01;;;;;;;8.43;4.13;;;13.20;53.50;;;;;;5051266;28;20499;-69
2022/03/09 14:30:08;;;;;;;9.30;4.03;;;13.20;50.60;;;;;;5051370;28;20047;-69
2022/03/09 14:33:13;;;;;;;6.80;3.30;;;13.10;49.40;;;;;;5051070;28;20056;-70
2022/03/09 14:36:17;;;;;;;8.88;3.80;;;13.00;50.30;;;;;;5050028;28;20051;-69
2022/03/09 14:39:25;;;;;;;10.27;4.07;;;13.00;50.80;;;;;;5050887;28;20048;-69
2022/03/09 14:42:29;;;;;;;8.80;4.38;;;12.80;51.60;;;;;;5051303;28;20500;-68
2022/03/09 14:45:33;;;;;;;11.45;4.68;;;12.80;51.60;;;;;;5050775;28;20504;-69
2022/03/09 14:48:37;;;;;;;10.75;3.97;;;12.80;51.60;;;;;;5050674;28;20044;-69
2022/03/09 14:51:41;;;;;;;15.25;6.10;;;12.80;50.90;;;;;;5050885;28;20044;-69
2022/03/09 14:54:45;;;;;;;8.77;4.53;;;12.80;51.50;;;;;;5050491;28;20044;-69
2022/03/09 14:57:49;;;;;;;10.30;4.22;;;12.70;51.50;;;;;;5050851;28;20044;-69
2022/03/09 15:00:53;;;;;;;13.32;5.15;;;12.60;51.60;;;;;;5050561;28;20044;-67
2022/03/09 15:03:57;;;;;;;9.55;4.78;;;12.60;51.80;;;;;;5049974;28;20040;-69
2022/03/09 15:07:02;;;;;;;11.77;4.95;;;12.50;52.00;;;;;;5053292;28;20048;-68
2022/03/09 15:10:08;;;;;;;7.75;4.63;;;12.50;52.90;;;;;;5054505;28;20048;-68
2022/03/09 15:13:12;;;;;;;11.65;4.55;;;12.50;52.30;;;;;;5053609;28;20369;-69
2022/03/09 15:16:15;;;;;;;11.32;3.92;;;12.40;52.80;;;;;;5054279;28;20060;-67
2022/03/09 15:19:24;;;;;;;13.45;4.90;;;12.40;52.60;;;;;;5054711;28;20040;-68
2022/03/09 15:22:29;;;;;;;12.02;5.30;;;12.40;53.00;;;;;;5054128;28;20063;-68
2022/03/09 15:25:33;;;;;;;11.75;4.38;;;12.40;52.80;;;;;;5054166;28;20044;-69
2022/03/09 15:28:38;;;;;;;13.15;5.63;;;12.30;54.20;;;;;;5054628;28;20040;-70
2022/03/09 15:31:50;;;;;;;7.75;4.05;;;12.20;54.10;;;;;;5054145;28;20048;-66
2022/03/09 15:34:54;;;;;;;;;;;12.10;54.60;;;;;;5054701;28;20107;-68
2022/03/09 15:37:58;;;;;;;10.20;4.95;;;11.90;54.40;;;;;;5054192;28;19919;-69
2022/03/09 15:41:02;;;;;;;10.30;5.15;;;11.90;54.80;;;;;;5054307;28;20370;-68
2022/03/09 15:44:06;;;;;;;8.27;4.28;;;11.70;55.20;;;;;;5053329;28;20124;-67
2022/03/09 15:47:10;;;;;;;14.18;5.10;;;11.60;55.40;;;;;;5053556;28;20048;-67
2022/03/09 15:50:14;;;;;;;8.68;5.00;;;11.60;55.50;;;;;;5053619;28;20040;-69
2022/03/09 15:53:18;;;;;;;11.27;6.15;;;11.60;55.70;;;;;;5052843;28;20044;-67
2022/03/09 15:56:23;;;;;;;8.77;4.70;;;11.50;56.00;;;;;;5053648;28;20052;-67
2022/03/09 15:59:26;;;;;;;18.10;5.95;;;11.40;56.00;;;;;;5053670;28;20499;-67
2022/03/09 16:02:31;;;;;;;8.60;4.85;;;11.40;56.00;;;;;;5053425;28;20099;-69